sensor_id;sensor_type;location;lat;lon;timestamp;P1;durP1;ratioP1;P2;durP2;ratioP2
26034;SDS011;13809;48.632;11.576;2023-04-03T00:02:33;1.90;;;1.80;;
26034;SDS011;13809;48.632;11.576;2023-04-03T00:07:37;2.20;;;2.00;;
26034;SDS011;13809;48.632;11.576;2023-04-03T00:12:42;2.07;;;1.87;;
26034;SDS011;13809;48.632;11.576;2023-04-03T00:17:45;1.70;;;1.60;;
26034;SDS011;13809;48.632;11.576;2023-04-03T00:22:48;2.03;;;1.80;;
26034;SDS011;13809;48.632;11.576;2023-04-03T00:27:53;1.80;;;1.70;;
26034;SDS011;13809;48.632;11.576;2023-04-03T00:32:56;2.00;;;1.90;;
26034;SDS011;13809;48.632;11.576;2023-04-03T00:37:59;1.90;;;1.80;;
26034;SDS011;13809;48.632;11.576;2023-04-03T00:43:09;2.40;;;1.80;;
26034;SDS011;13809;48.632;11.576;2023-04-03T00:48:15;2.37;;;1.90;;
26034;SDS011;13809;48.632;11.576;2023-04-03T00:53:23;2.03;;;1.80;;
26034;SDS011;13809;48.632;11.576;2023-04-03T00:58:31;1.90;;;1.80;;
26034;SDS011;13809;48.632;11.576;2023-04-03T01:03:36;2.13;;;1.73;;
26034;SDS011;13809;48.632;11.576;2023-04-03T01:08:39;1.93;;;1.83;;
26034;SDS011;13809;48.632;11.576;2023-04-03T01:13:44;2.43;;;2.00;;
26034;SDS011;13809;48.632;11.576;2023-04-03T01:18:47;1.90;;;1.70;;
26034;SDS011;13809;48.632;11.576;2023-04-03T01:23:53;2.37;;;2.10;;
26034;SDS011;13809;48.632;11.576;2023-04-03T01:29:16;2.27;;;2.07;;
26034;SDS011;13809;48.632;11.576;2023-04-03T01:34:21;2.07;;;1.97;;
26034;SDS011;13809;48.632;11.576;2023-04-03T01:39:24;2.10;;;2.00;;
26034;SDS011;13809;48.632;11.576;2023-04-03T01:44:28;2.50;;;2.30;;
26034;SDS011;13809;48.632;11.576;2023-04-03T01:49:32;2.10;;;2.00;;
26034;SDS011;13809;48.632;11.576;2023-04-03T01:54:35;2.63;;;2.13;;
26034;SDS011;13809;48.632;11.576;2023-04-03T01:59:38;2.20;;;2.00;;
26034;SDS011;13809;48.632;11.576;2023-04-03T02:04:43;2.30;;;2.10;;
26034;SDS011;13809;48.632;11.576;2023-04-03T02:09:46;2.00;;;1.90;;
26034;SDS011;13809;48.632;11.576;2023-04-03T02:14:49;2.03;;;1.93;;
26034;SDS011;13809;48.632;11.576;2023-04-03T02:19:54;2.10;;;1.97;;
26034;SDS011;13809;48.632;11.576;2023-04-03T02:24:57;2.33;;;2.13;;
26034;SDS011;13809;48.632;11.576;2023-04-03T02:30:00;2.50;;;2.30;;
26034;SDS011;13809;48.632;11.576;2023-04-03T02:35:05;2.63;;;2.13;;
26034;SDS011;13809;48.632;11.576;2023-04-03T02:40:08;2.17;;;2.03;;
26034;SDS011;13809;48.632;11.576;2023-04-03T02:45:13;1.90;;;1.80;;
26034;SDS011;13809;48.632;11.576;2023-04-03T02:50:17;2.40;;;2.23;;
26034;SDS011;13809;48.632;11.576;2023-04-03T02:55:20;2.40;;;2.20;;
26034;SDS011;13809;48.632;11.576;2023-04-03T03:00:24;2.33;;;2.10;;
26034;SDS011;13809;48.632;11.576;2023-04-03T03:05:28;2.10;;;2.00;;
26034;SDS011;13809;48.632;11.576;2023-04-03T03:10:32;4.33;;;2.40;;
26034;SDS011;13809;48.632;11.576;2023-04-03T03:15:35;2.37;;;2.17;;
26034;SDS011;13809;48.632;11.576;2023-04-03T03:20:40;2.70;;;2.27;;
26034;SDS011;13809;48.632;11.576;2023-04-03T03:25:43;2.47;;;2.27;;
26034;SDS011;13809;48.632;11.576;2023-04-03T03:30:46;2.37;;;2.17;;
26034;SDS011;13809;48.632;11.576;2023-04-03T03:35:51;3.03;;;2.13;;
26034;SDS011;13809;48.632;11.576;2023-04-03T03:40:54;2.20;;;2.00;;
26034;SDS011;13809;48.632;11.576;2023-04-03T03:45:57;2.50;;;2.23;;
26034;SDS011;13809;48.632;11.576;2023-04-03T03:51:02;2.30;;;2.10;;
26034;SDS011;13809;48.632;11.576;2023-04-03T03:56:05;2.40;;;2.20;;
26034;SDS011;13809;48.632;11.576;2023-04-03T04:01:08;2.27;;;2.17;;
26034;SDS011;13809;48.632;11.576;2023-04-03T04:06:13;2.60;;;2.40;;
26034;SDS011;13809;48.632;11.576;2023-04-03T04:11:16;2.57;;;2.37;;
26034;SDS011;13809;48.632;11.576;2023-04-03T04:16:19;2.53;;;2.33;;
26034;SDS011;13809;48.632;11.576;2023-04-03T04:21:24;2.60;;;2.40;;
26034;SDS011;13809;48.632;11.576;2023-04-03T04:26:27;2.53;;;2.20;;
26034;SDS011;13809;48.632;11.576;2023-04-03T04:31:31;2.50;;;2.30;;
26034;SDS011;13809;48.632;11.576;2023-04-03T04:36:35;2.67;;;2.47;;
26034;SDS011;13809;48.632;11.576;2023-04-03T04:41:38;2.60;;;2.40;;
26034;SDS011;13809;48.632;11.576;2023-04-03T04:46:42;2.83;;;2.50;;
26034;SDS011;13809;48.632;11.576;2023-04-03T04:51:46;2.83;;;2.63;;
26034;SDS011;13809;48.632;11.576;2023-04-03T04:56:52;2.40;;;2.30;;
26034;SDS011;13809;48.632;11.576;2023-04-03T05:01:55;3.43;;;2.33;;
26034;SDS011;13809;48.632;11.576;2023-04-03T05:07:00;2.60;;;2.40;;
26034;SDS011;13809;48.632;11.576;2023-04-03T05:12:03;2.83;;;2.27;;
26034;SDS011;13809;48.632;11.576;2023-04-03T05:17:06;2.80;;;2.50;;
26034;SDS011;13809;48.632;11.576;2023-04-03T05:22:11;2.60;;;2.27;;
26034;SDS011;13809;48.632;11.576;2023-04-03T05:27:14;2.40;;;2.17;;
26034;SDS011;13809;48.632;11.576;2023-04-03T05:32:18;2.43;;;2.23;;
26034;SDS011;13809;48.632;11.576;2023-04-03T05:37:22;3.47;;;2.60;;
26034;SDS011;13809;48.632;11.576;2023-04-03T05:42:26;2.93;;;2.73;;
26034;SDS011;13809;48.632;11.576;2023-04-03T05:47:29;5.77;;;4.00;;
26034;SDS011;13809;48.632;11.576;2023-04-03T05:52:35;3.10;;;2.80;;
26034;SDS011;13809;48.632;11.576;2023-04-03T05:57:40;3.03;;;2.73;;
26034;SDS011;13809;48.632;11.576;2023-04-03T06:02:43;2.37;;;2.20;;
26034;SDS011;13809;48.632;11.576;2023-04-03T06:07:47;2.93;;;2.50;;
26034;SDS011;13809;48.632;11.576;2023-04-03T06:12:51;2.83;;;2.40;;
26034;SDS011;13809;48.632;11.576;2023-04-03T06:17:54;2.43;;;2.20;;
26034;SDS011;13809;48.632;11.576;2023-04-03T06:22:59;2.60;;;2.40;;
26034;SDS011;13809;48.632;11.576;2023-04-03T06:28:02;2.30;;;2.10;;
26034;SDS011;13809;48.632;11.576;2023-04-03T06:33:05;3.03;;;2.10;;
26034;SDS011;13809;48.632;11.576;2023-04-03T06:38:09;2.47;;;2.27;;
26034;SDS011;13809;48.632;11.576;2023-04-03T06:43:13;3.33;;;2.27;;
26034;SDS011;13809;48.632;11.576;2023-04-03T06:48:16;3.57;;;2.40;;
26034;SDS011;13809;48.632;11.576;2023-04-03T06:53:20;2.50;;;2.30;;
26034;SDS011;13809;48.632;11.576;2023-04-03T06:58:23;2.50;;;2.27;;
26034;SDS011;13809;48.632;11.576;2023-04-03T07:03:26;2.93;;;2.30;;
26034;SDS011;13809;48.632;11.576;2023-04-03T07:08:31;2.50;;;2.30;;
26034;SDS011;13809;48.632;11.576;2023-04-03T07:13:34;3.07;;;2.43;;
26034;SDS011;13809;48.632;11.576;2023-04-03T07:18:38;2.40;;;2.20;;
26034;SDS011;13809;48.632;11.576;2023-04-03T07:23:42;3.13;;;2.60;;
26034;SDS011;13809;48.632;11.576;2023-04-03T07:28:46;2.83;;;2.50;;
26034;SDS011;13809;48.632;11.576;2023-04-03T07:33:49;2.97;;;2.47;;
26034;SDS011;13809;48.632;11.576;2023-04-03T07:38:54;2.90;;;2.63;;
26034;SDS011;13809;48.632;11.576;2023-04-03T07:43:58;2.63;;;2.43;;
26034;SDS011;13809;48.632;11.576;2023-04-03T07:49:01;3.27;;;2.80;;
26034;SDS011;13809;48.632;11.576;2023-04-03T07:54:06;2.70;;;2.47;;
26034;SDS011;13809;48.632;11.576;2023-04-03T07:59:09;2.73;;;2.53;;
26034;SDS011;13809;48.632;11.576;2023-04-03T08:04:12;2.70;;;2.50;;
26034;SDS011;13809;48.632;11.576;2023-04-03T08:09:17;2.50;;;2.30;;
26034;SDS011;13809;48.632;11.576;2023-04-03T08:14:21;2.73;;;2.53;;
26034;SDS011;13809;48.632;11.576;2023-04-03T08:19:24;3.07;;;2.70;;
26034;SDS011;13809;48.632;11.576;2023-04-03T08:24:28;3.23;;;2.70;;
26034;SDS011;13809;48.632;11.576;2023-04-03T08:29:32;2.60;;;2.40;;
26034;SDS011;13809;48.632;11.576;2023-04-03T08:34:35;2.97;;;2.77;;
26034;SDS011;13809;48.632;11.576;2023-04-03T08:39:42;4.17;;;2.67;;
26034;SDS011;13809;48.632;11.576;2023-04-03T08:44:46;3.10;;;2.80;;
26034;SDS011;13809;48.632;11.576;2023-04-03T08:49:55;3.47;;;2.80;;
26034;SDS011;13809;48.632;11.576;2023-04-03T08:55:03;2.97;;;2.33;;
26034;SDS011;13809;48.632;11.576;2023-04-03T09:00:14;3.40;;;2.93;;
26034;SDS011;13809;48.632;11.576;2023-04-03T09:05:33;2.80;;;2.50;;
26034;SDS011;13809;48.632;11.576;2023-04-03T09:10:43;2.87;;;2.47;;
26034;SDS011;13809;48.632;11.576;2023-04-03T09:15:46;3.40;;;2.60;;
26034;SDS011;13809;48.632;11.576;2023-04-03T09:20:54;2.77;;;2.57;;
26034;SDS011;13809;48.632;11.576;2023-04-03T09:26:04;2.83;;;2.60;;
26034;SDS011;13809;48.632;11.576;2023-04-03T09:31:14;3.33;;;2.27;;
26034;SDS011;13809;48.632;11.576;2023-04-03T09:36:38;2.93;;;2.47;;
26034;SDS011;13809;48.632;11.576;2023-04-03T09:41:56;2.57;;;2.37;;
26034;SDS011;13809;48.632;11.576;2023-04-03T09:47:17;2.30;;;2.10;;
26034;SDS011;13809;48.632;11.576;2023-04-03T09:52:25;2.70;;;2.50;;
26034;SDS011;13809;48.632;11.576;2023-04-03T09:57:33;2.60;;;2.40;;
26034;SDS011;13809;48.632;11.576;2023-04-03T10:02:37;2.87;;;2.30;;
26034;SDS011;13809;48.632;11.576;2023-04-03T10:07:42;2.77;;;2.10;;
26034;SDS011;13809;48.632;11.576;2023-04-03T10:13:10;3.73;;;2.00;;
26034;SDS011;13809;48.632;11.576;2023-04-03T10:18:28;2.70;;;2.13;;
26034;SDS011;13809;48.632;11.576;2023-04-03T10:23:37;2.77;;;1.83;;
26034;SDS011;13809;48.632;11.576;2023-04-03T10:28:50;2.53;;;1.70;;
26034;SDS011;13809;48.632;11.576;2023-04-03T10:34:01;2.00;;;1.80;;
26034;SDS011;13809;48.632;11.576;2023-04-03T10:39:12;2.30;;;1.50;;
26034;SDS011;13809;48.632;11.576;2023-04-03T10:44:27;2.97;;;1.63;;
26034;SDS011;13809;48.632;11.576;2023-04-03T10:49:42;1.60;;;1.50;;
26034;SDS011;13809;48.632;11.576;2023-04-03T10:55:02;3.37;;;1.50;;
26034;SDS011;13809;48.632;11.576;2023-04-03T11:00:24;2.97;;;1.80;;
26034;SDS011;13809;48.632;11.576;2023-04-03T11:05:32;1.67;;;1.57;;
26034;SDS011;13809;48.632;11.576;2023-04-03T11:10:40;1.70;;;1.50;;
26034;SDS011;13809;48.632;11.576;2023-04-03T11:15:48;2.23;;;1.47;;
26034;SDS011;13809;48.632;11.576;2023-04-03T11:20:56;2.47;;;1.80;;
26034;SDS011;13809;48.632;11.576;2023-04-03T11:26:10;1.53;;;1.40;;
26034;SDS011;13809;48.632;11.576;2023-04-03T11:31:22;1.77;;;1.67;;
26034;SDS011;13809;48.632;11.576;2023-04-03T11:36:46;1.87;;;1.47;;
26034;SDS011;13809;48.632;11.576;2023-04-03T11:41:52;1.90;;;1.53;;
26034;SDS011;13809;48.632;11.576;2023-04-03T11:47:43;2.63;;;1.57;;
26034;SDS011;13809;48.632;11.576;2023-04-03T11:52:57;2.73;;;1.50;;
26034;SDS011;13809;48.632;11.576;2023-04-03T11:58:03;1.70;;;1.60;;
26034;SDS011;13809;48.632;11.576;2023-04-03T12:08:54;1.53;;;1.40;;
26034;SDS011;13809;48.632;11.576;2023-04-03T12:14:02;1.30;;;1.20;;
26034;SDS011;13809;48.632;11.576;2023-04-03T12:24:45;1.93;;;1.30;;
26034;SDS011;13809;48.632;11.576;2023-04-03T12:29:54;1.40;;;1.30;;
26034;SDS011;13809;48.632;11.576;2023-04-03T12:35:09;1.73;;;1.60;;
26034;SDS011;13809;48.632;11.576;2023-04-03T12:40:23;1.50;;;1.30;;
26034;SDS011;13809;48.632;11.576;2023-04-03T12:45:37;1.53;;;1.33;;
26034;SDS011;13809;48.632;11.576;2023-04-03T12:50:45;1.43;;;1.33;;
26034;SDS011;13809;48.632;11.576;2023-04-03T12:55:54;3.20;;;1.40;;
26034;SDS011;13809;48.632;11.576;2023-04-03T13:01:01;2.70;;;1.40;;
26034;SDS011;13809;48.632;11.576;2023-04-03T13:06:05;1.90;;;1.17;;
26034;SDS011;13809;48.632;11.576;2023-04-03T13:11:10;1.43;;;1.30;;
26034;SDS011;13809;48.632;11.576;2023-04-03T13:16:15;1.50;;;1.30;;
26034;SDS011;13809;48.632;11.576;2023-04-03T13:21:19;2.93;;;1.30;;
26034;SDS011;13809;48.632;11.576;2023-04-03T13:26:27;1.47;;;1.30;;
26034;SDS011;13809;48.632;11.576;2023-04-03T13:31:33;1.50;;;1.30;;
26034;SDS011;13809;48.632;11.576;2023-04-03T13:36:38;1.40;;;1.10;;
26034;SDS011;13809;48.632;11.576;2023-04-03T13:41:45;2.40;;;1.40;;
26034;SDS011;13809;48.632;11.576;2023-04-03T13:46:50;1.20;;;1.10;;
26034;SDS011;13809;48.632;11.576;2023-04-03T13:51:54;1.30;;;1.20;;
26034;SDS011;13809;48.632;11.576;2023-04-03T13:57:13;1.27;;;1.17;;
26034;SDS011;13809;48.632;11.576;2023-04-03T14:02:19;1.33;;;1.23;;
26034;SDS011;13809;48.632;11.576;2023-04-03T14:07:25;1.63;;;1.30;;
26034;SDS011;13809;48.632;11.576;2023-04-03T14:12:31;1.83;;;1.30;;
26034;SDS011;13809;48.632;11.576;2023-04-03T14:17:37;1.47;;;1.37;;
26034;SDS011;13809;48.632;11.576;2023-04-03T14:22:40;1.53;;;1.20;;
26034;SDS011;13809;48.632;11.576;2023-04-03T14:27:47;1.67;;;1.10;;
26034;SDS011;13809;48.632;11.576;2023-04-03T14:32:52;1.47;;;1.37;;
26034;SDS011;13809;48.632;11.576;2023-04-03T14:37:55;1.53;;;1.43;;
26034;SDS011;13809;48.632;11.576;2023-04-03T14:43:00;1.57;;;1.40;;
26034;SDS011;13809;48.632;11.576;2023-04-03T14:48:03;2.07;;;1.73;;
26034;SDS011;13809;48.632;11.576;2023-04-03T14:53:09;2.03;;;1.47;;
26034;SDS011;13809;48.632;11.576;2023-04-03T14:58:19;2.43;;;1.67;;
26034;SDS011;13809;48.632;11.576;2023-04-03T15:03:23;1.30;;;1.20;;
26034;SDS011;13809;48.632;11.576;2023-04-03T15:08:26;2.40;;;1.70;;
26034;SDS011;13809;48.632;11.576;2023-04-03T15:13:33;1.90;;;1.50;;
26034;SDS011;13809;48.632;11.576;2023-04-03T15:18:37;2.73;;;1.40;;
26034;SDS011;13809;48.632;11.576;2023-04-03T15:23:40;1.90;;;1.40;;
26034;SDS011;13809;48.632;11.576;2023-04-03T15:28:45;1.63;;;1.30;;
26034;SDS011;13809;48.632;11.576;2023-04-03T15:33:48;2.20;;;1.50;;
26034;SDS011;13809;48.632;11.576;2023-04-03T15:38:52;1.70;;;1.47;;
26034;SDS011;13809;48.632;11.576;2023-04-03T15:43:56;1.57;;;1.33;;
26034;SDS011;13809;48.632;11.576;2023-04-03T15:49:00;2.03;;;1.27;;
26034;SDS011;13809;48.632;11.576;2023-04-03T15:54:03;2.00;;;1.77;;
26034;SDS011;13809;48.632;11.576;2023-04-03T15:59:08;2.53;;;1.90;;
26034;SDS011;13809;48.632;11.576;2023-04-03T16:04:13;4.00;;;2.07;;
26034;SDS011;13809;48.632;11.576;2023-04-03T16:09:18;3.17;;;2.07;;
26034;SDS011;13809;48.632;11.576;2023-04-03T16:14:23;2.43;;;1.67;;
26034;SDS011;13809;48.632;11.576;2023-04-03T16:19:26;1.73;;;1.40;;
26034;SDS011;13809;48.632;11.576;2023-04-03T16:24:29;2.23;;;1.50;;
26034;SDS011;13809;48.632;11.576;2023-04-03T16:29:34;1.57;;;1.47;;
26034;SDS011;13809;48.632;11.576;2023-04-03T16:34:37;1.60;;;1.30;;
26034;SDS011;13809;48.632;11.576;2023-04-03T16:39:42;2.13;;;1.70;;
26034;SDS011;13809;48.632;11.576;2023-04-03T16:44:47;1.80;;;1.57;;
26034;SDS011;13809;48.632;11.576;2023-04-03T16:49:50;2.10;;;1.27;;
26034;SDS011;13809;48.632;11.576;2023-04-03T16:54:53;1.80;;;1.30;;
26034;SDS011;13809;48.632;11.576;2023-04-03T17:00:00;2.70;;;1.30;;
26034;SDS011;13809;48.632;11.576;2023-04-03T17:05:04;1.90;;;1.63;;
26034;SDS011;13809;48.632;11.576;2023-04-03T17:10:08;3.30;;;2.23;;
26034;SDS011;13809;48.632;11.576;2023-04-03T17:15:13;3.07;;;1.87;;
26034;SDS011;13809;48.632;11.576;2023-04-03T17:20:16;2.37;;;1.40;;
26034;SDS011;13809;48.632;11.576;2023-04-03T17:25:19;1.60;;;1.50;;
26034;SDS011;13809;48.632;11.576;2023-04-03T17:30:24;3.77;;;2.40;;
26034;SDS011;13809;48.632;11.576;2023-04-03T17:35:27;3.73;;;2.73;;
26034;SDS011;13809;48.632;11.576;2023-04-03T17:40:32;5.10;;;3.83;;
26034;SDS011;13809;48.632;11.576;2023-04-03T17:45:36;3.93;;;2.10;;
26034;SDS011;13809;48.632;11.576;2023-04-03T17:50:40;1.70;;;1.60;;
26034;SDS011;13809;48.632;11.576;2023-04-03T17:55:43;1.67;;;1.23;;
26034;SDS011;13809;48.632;11.576;2023-04-03T18:00:47;2.87;;;1.50;;
26034;SDS011;13809;48.632;11.576;2023-04-03T18:05:51;2.60;;;1.60;;
26034;SDS011;13809;48.632;11.576;2023-04-03T18:10:55;1.63;;;1.50;;
26034;SDS011;13809;48.632;11.576;2023-04-03T18:16:00;1.60;;;1.50;;
26034;SDS011;13809;48.632;11.576;2023-04-03T18:21:03;1.77;;;1.60;;
26034;SDS011;13809;48.632;11.576;2023-04-03T18:26:07;2.30;;;1.80;;
26034;SDS011;13809;48.632;11.576;2023-04-03T18:31:19;1.57;;;1.47;;
26034;SDS011;13809;48.632;11.576;2023-04-03T18:36:23;2.43;;;1.93;;
26034;SDS011;13809;48.632;11.576;2023-04-03T18:41:27;2.10;;;1.90;;
26034;SDS011;13809;48.632;11.576;2023-04-03T18:46:35;2.17;;;1.70;;
26034;SDS011;13809;48.632;11.576;2023-04-03T18:51:39;2.03;;;1.90;;
26034;SDS011;13809;48.632;11.576;2023-04-03T18:56:42;1.90;;;1.63;;
26034;SDS011;13809;48.632;11.576;2023-04-03T19:01:47;1.70;;;1.60;;
26034;SDS011;13809;48.632;11.576;2023-04-03T19:06:50;2.17;;;1.80;;
26034;SDS011;13809;48.632;11.576;2023-04-03T19:11:54;2.10;;;1.83;;
26034;SDS011;13809;48.632;11.576;2023-04-03T19:16:58;3.30;;;1.80;;
26034;SDS011;13809;48.632;11.576;2023-04-03T19:22:03;2.10;;;1.87;;
26034;SDS011;13809;48.632;11.576;2023-04-03T19:27:08;1.60;;;1.50;;
26034;SDS011;13809;48.632;11.576;2023-04-03T19:32:12;1.60;;;1.50;;
26034;SDS011;13809;48.632;11.576;2023-04-03T19:37:15;5.40;;;1.90;;
26034;SDS011;13809;48.632;11.576;2023-04-03T19:42:19;2.03;;;1.80;;
26034;SDS011;13809;48.632;11.576;2023-04-03T19:47:24;1.57;;;1.40;;
26034;SDS011;13809;48.632;11.576;2023-04-03T19:52:29;2.10;;;1.70;;
26034;SDS011;13809;48.632;11.576;2023-04-03T19:57:32;1.87;;;1.77;;
26034;SDS011;13809;48.632;11.576;2023-04-03T20:02:36;2.17;;;1.57;;
26034;SDS011;13809;48.632;11.576;2023-04-03T20:07:39;1.90;;;1.70;;
26034;SDS011;13809;48.632;11.576;2023-04-03T20:12:43;1.70;;;1.50;;
26034;SDS011;13809;48.632;11.576;2023-04-03T20:17:47;2.50;;;1.50;;
26034;SDS011;13809;48.632;11.576;2023-04-03T20:22:51;2.07;;;1.90;;
26034;SDS011;13809;48.632;11.576;2023-04-03T20:27:54;1.83;;;1.60;;
26034;SDS011;13809;48.632;11.576;2023-04-03T20:32:58;1.80;;;1.70;;
26034;SDS011;13809;48.632;11.576;2023-04-03T20:38:02;2.07;;;1.87;;
26034;SDS011;13809;48.632;11.576;2023-04-03T20:43:06;1.70;;;1.60;;
26034;SDS011;13809;48.632;11.576;2023-04-03T20:48:11;1.60;;;1.50;;
26034;SDS011;13809;48.632;11.576;2023-04-03T20:53:15;2.50;;;1.77;;
26034;SDS011;13809;48.632;11.576;2023-04-03T20:58:19;2.53;;;1.80;;
26034;SDS011;13809;48.632;11.576;2023-04-03T21:03:27;3.00;;;1.60;;
26034;SDS011;13809;48.632;11.576;2023-04-03T21:19:55;1.73;;;1.60;;
26034;SDS011;13809;48.632;11.576;2023-04-03T21:24:58;2.03;;;1.73;;
26034;SDS011;13809;48.632;11.576;2023-04-03T21:30:01;1.60;;;1.50;;
26034;SDS011;13809;48.632;11.576;2023-04-03T21:35:08;1.83;;;1.60;;
26034;SDS011;13809;48.632;11.576;2023-04-03T21:40:11;2.50;;;1.90;;
26034;SDS011;13809;48.632;11.576;2023-04-03T21:45:14;2.70;;;1.90;;
26034;SDS011;13809;48.632;11.576;2023-04-03T21:50:20;3.77;;;1.47;;
26034;SDS011;13809;48.632;11.576;2023-04-03T21:55:23;1.70;;;1.60;;
26034;SDS011;13809;48.632;11.576;2023-04-03T22:00:26;1.77;;;1.63;;
26034;SDS011;13809;48.632;11.576;2023-04-03T22:05:31;2.00;;;1.80;;
26034;SDS011;13809;48.632;11.576;2023-04-03T22:10:36;1.63;;;1.53;;
26034;SDS011;13809;48.632;11.576;2023-04-03T22:15:42;2.37;;;1.80;;
26034;SDS011;13809;48.632;11.576;2023-04-03T22:20:50;1.60;;;1.50;;
26034;SDS011;13809;48.632;11.576;2023-04-03T22:25:57;1.60;;;1.50;;
26034;SDS011;13809;48.632;11.576;2023-04-03T22:31:04;2.40;;;1.80;;
26034;SDS011;13809;48.632;11.576;2023-04-03T22:36:10;2.10;;;1.90;;
26034;SDS011;13809;48.632;11.576;2023-04-03T22:41:17;2.23;;;1.70;;
26034;SDS011;13809;48.632;11.576;2023-04-03T22:46:20;1.77;;;1.50;;
26034;SDS011;13809;48.632;11.576;2023-04-03T22:51:25;2.57;;;1.63;;
26034;SDS011;13809;48.632;11.576;2023-04-03T22:56:28;1.60;;;1.50;;
26034;SDS011;13809;48.632;11.576;2023-04-03T23:01:31;2.53;;;1.67;;
26034;SDS011;13809;48.632;11.576;2023-04-03T23:06:37;2.00;;;1.60;;
26034;SDS011;13809;48.632;11.576;2023-04-03T23:11:40;2.10;;;1.60;;
26034;SDS011;13809;48.632;11.576;2023-04-03T23:16:44;3.17;;;1.57;;
26034;SDS011;13809;48.632;11.576;2023-04-03T23:21:48;2.97;;;1.70;;
26034;SDS011;13809;48.632;11.576;2023-04-03T23:26:52;2.87;;;2.10;;
26034;SDS011;13809;48.632;11.576;2023-04-03T23:31:55;3.73;;;1.97;;
26034;SDS011;13809;48.632;11.576;2023-04-03T23:36:59;2.77;;;2.00;;
26034;SDS011;13809;48.632;11.576;2023-04-03T23:42:02;2.33;;;1.77;;
26034;SDS011;13809;48.632;11.576;2023-04-03T23:47:09;2.23;;;1.73;;
26034;SDS011;13809;48.632;11.576;2023-04-03T23:52:13;2.00;;;1.77;;
26034;SDS011;13809;48.632;11.576;2023-04-03T23:57:16;2.13;;;1.70;;
